Time;durP1;ratioP1;P1;durP2;ratioP2;P2;SDS_P1;SDS_P2;PMS_P1;PMS_P2;Temp;Humidity;BMP_temperature;BMP_pressure;BME280_temperature;BME280_humidity;BME280_pressure;Samples;Min_cycle;Max_cycle;Signal;HPM_P1;HPM_P2
2023/04/24 00:04:46;;;;;;;31.60;21.20;;;;;;;12.83;100.00;99475.84;218631;1290;140947;-87
2023/04/24 00:09:46;;;;;;;31.60;21.20;;;;;;;12.87;100.00;99476.50;218180;1290;139513;-86
2023/04/24 00:14:47;;;;;;;31.30;21.00;;;;;;;12.91;100.00;99469.43;218650;1290;139416;-86
2023/04/24 00:19:48;;;;;;;30.60;20.00;;;;;;;12.95;100.00;99466.45;218048;1290;140464;-87
2023/04/24 00:24:48;;;;;;;29.30;20.00;;;;;;;12.98;100.00;99463.76;218676;1290;140760;-86
2023/04/24 00:29:49;;;;;;;29.70;19.50;;;;;;;12.99;100.00;99460.73;218143;1290;139649;-87
2023/04/24 00:34:49;;;;;;;24.10;17.10;;;;;;;13.02;100.00;99462.91;218567;1290;139299;-87
2023/04/24 00:39:49;;;;;;;28.80;18.40;;;;;;;13.05;100.00;99462.55;218253;1291;139933;-86
2023/04/24 00:44:50;;;;;;;29.00;19.30;;;;;;;13.04;100.00;99456.80;218721;1290;139379;-86
2023/04/24 00:49:51;;;;;;;25.50;17.50;;;;;;;13.03;100.00;99445.45;218330;1290;140631;-86
2023/04/24 00:54:51;;;;;;;24.50;17.20;;;;;;;13.04;100.00;99450.41;218591;1290;139663;-86
2023/04/24 00:59:53;;;;;;;23.10;16.00;;;;;;;13.07;100.00;99455.17;218127;1290;140115;-86
2023/04/24 01:04:53;;;;;;;28.30;17.70;;;;;;;13.09;100.00;99456.27;218635;1289;139363;-86
2023/04/24 01:09:53;;;;;;;26.00;16.60;;;;;;;13.10;100.00;99449.54;218201;1290;139657;-86
2023/04/24 01:14:55;;;;;;;24.30;16.70;;;;;;;13.09;100.00;99439.91;218700;1290;140094;-87
2023/04/24 01:19:57;;;;;;;24.50;17.30;;;;;;;13.09;100.00;99432.04;218195;1290;141238;-86
2023/04/24 01:24:57;;;;;;;23.50;15.50;;;;;;;13.08;100.00;99425.40;218588;1290;139383;-86
2023/04/24 01:29:57;;;;;;;25.90;15.50;;;;;;;13.08;100.00;99422.10;218078;1290;140594;-87
2023/04/24 01:34:58;;;;;;;24.30;15.40;;;;;;;13.07;100.00;99415.55;218581;1290;139337;-88
2023/04/24 01:39:59;;;;;;;21.40;14.30;;;;;;;13.05;100.00;99408.41;218037;1290;140543;-87
2023/04/24 01:45:00;;;;;;;21.60;14.60;;;;;;;13.08;100.00;99404.59;218668;1290;139983;-86
2023/04/24 01:50:00;;;;;;;22.50;13.50;;;;;;;13.11;100.00;99408.40;218291;1290;139442;-87
2023/04/24 01:55:02;;;;;;;24.30;17.00;;;;;;;13.12;100.00;99408.15;218610;1290;139446;-87
2023/04/24 02:00:06;;;;;;;28.30;20.30;;;;;;;13.09;100.00;99405.90;217997;1290;139963;-88
2023/04/24 02:05:08;;;;;;;23.70;16.20;;;;;;;13.07;100.00;99403.10;218413;1290;139711;-86
2023/04/24 02:10:09;;;;;;;24.90;16.10;;;;;;;13.06;100.00;99401.92;218079;1290;141129;-87
2023/04/24 02:15:10;;;;;;;24.40;15.30;;;;;;;13.04;100.00;99399.50;218663;1290;139529;-86
2023/04/24 02:20:10;;;;;;;23.10;14.90;;;;;;;13.01;100.00;99392.84;218166;1290;139162;-86
2023/04/24 02:25:11;;;;;;;22.10;14.30;;;;;;;13.00;100.00;99388.91;218776;1290;139060;-86
2023/04/24 02:30:11;;;;;;;20.90;14.30;;;;;;;13.00;100.00;99376.30;218144;1290;140604;-86
2023/04/24 02:35:12;;;;;;;19.10;12.60;;;;;;;12.99;100.00;99371.41;218548;1290;139682;-85
2023/04/24 02:40:12;;;;;;;23.30;12.80;;;;;;;12.99;100.00;99358.96;218186;1290;140251;-86
2023/04/24 02:45:12;;;;;;;18.70;12.90;;;;;;;12.97;100.00;99356.13;218714;1290;139477;-86
2023/04/24 02:50:13;;;;;;;18.40;12.10;;;;;;;12.98;100.00;99357.00;218180;1290;139731;-86
2023/04/24 02:55:13;;;;;;;19.60;13.20;;;;;;;12.96;100.00;99353.77;218685;1290;140072;-85
2023/04/24 03:00:14;;;;;;;22.10;13.50;;;;;;;12.91;100.00;99352.74;218201;1290;141040;-86
2023/04/24 03:05:14;;;;;;;19.80;12.50;;;;;;;12.88;100.00;99347.11;218710;1290;140259;-86
2023/04/24 03:10:15;;;;;;;20.20;13.10;;;;;;;12.87;100.00;99348.22;218163;1290;139221;-86
2023/04/24 03:15:15;;;;;;;19.20;12.70;;;;;;;12.85;100.00;99343.82;218709;1290;139518;-86
2023/04/24 03:20:16;;;;;;;22.20;13.70;;;;;;;12.82;100.00;99330.45;218291;1290;139718;-86
2023/04/24 03:25:16;;;;;;;19.90;12.40;;;;;;;12.79;100.00;99324.52;218646;1290;139383;-86
2023/04/24 03:30:16;;;;;;;20.40;13.30;;;;;;;12.78;100.00;99318.63;218169;1290;139198;-86
2023/04/24 03:35:17;;;;;;;19.60;12.40;;;;;;;12.75;100.00;99316.85;218725;1290;140647;-85
2023/04/24 03:40:17;;;;;;;16.90;11.80;;;;;;;12.74;100.00;99312.38;217999;1290;140080;-85
2023/04/24 03:45:20;;;;;;;20.10;13.10;;;;;;;12.72;100.00;99299.22;218578;1290;139428;-84
2023/04/24 03:50:20;;;;;;;19.60;14.50;;;;;;;12.70;100.00;99298.05;218288;1290;140414;-85
2023/04/24 03:55:21;;;;;;;21.60;14.40;;;;;;;12.67;100.00;99285.66;218649;1290;139254;-85
2023/04/24 04:00:21;;;;;;;23.00;13.70;;;;;;;12.64;100.00;99283.65;218082;1290;140495;-85
2023/04/24 04:05:21;;;;;;;19.10;13.30;;;;;;;12.62;100.00;99294.41;218664;1290;139387;-85
2023/04/24 04:10:22;;;;;;;19.30;13.90;;;;;;;12.58;100.00;99302.37;218197;1290;139950;-85
2023/04/24 04:15:23;;;;;;;24.70;15.70;;;;;;;12.52;100.00;99305.45;218604;1290;187496;-85
2023/04/24 04:20:23;;;;;;;20.90;14.90;;;;;;;12.46;100.00;99309.80;218276;1290;140046;-86
2023/04/24 04:25:24;;;;;;;21.70;15.40;;;;;;;12.45;100.00;99308.30;218673;1290;139418;-85
2023/04/24 04:30:25;;;;;;;24.50;15.30;;;;;;;12.41;100.00;99304.75;218174;1290;139425;-85
2023/04/24 04:35:26;;;;;;;22.00;15.40;;;;;;;12.38;100.00;99296.11;218710;1290;139209;-85
2023/04/24 04:40:28;;;;;;;20.40;13.20;;;;;;;12.38;100.00;99294.70;218119;1290;139995;-85
2023/04/24 04:45:28;;;;;;;23.10;16.10;;;;;;;12.40;100.00;99291.13;218618;1291;141410;-85
2023/04/24 04:50:29;;;;;;;21.20;15.00;;;;;;;12.42;100.00;99288.64;218253;1290;140086;-85
2023/04/24 04:55:29;;;;;;;24.90;14.20;;;;;;;12.44;100.00;99280.73;218652;1290;139218;-85
2023/04/24 05:00:35;;;;;;;19.40;12.50;;;;;;;12.46;100.00;99282.12;218126;1290;139790;-85
2023/04/24 05:05:35;;;;;;;20.20;13.50;;;;;;;12.48;100.00;99276.27;218522;1290;139536;-85
2023/04/24 05:10:36;;;;;;;18.40;12.40;;;;;;;12.51;100.00;99276.38;218205;1290;139339;-84
2023/04/24 05:15:37;;;;;;;18.30;13.30;;;;;;;12.55;100.00;99279.77;218685;1290;139228;-84
2023/04/24 05:20:37;;;;;;;18.50;13.10;;;;;;;12.60;100.00;99273.30;218163;1290;139912;-84
2023/04/24 05:25:39;;;;;;;20.70;14.20;;;;;;;12.66;100.00;99285.58;218795;1290;95638;-84
2023/04/24 05:30:40;;;;;;;19.90;12.30;;;;;;;12.75;100.00;99282.78;218106;1290;139568;-82
2023/04/24 05:35:46;;;;;;;19.80;12.50;;;;;;;12.87;100.00;99276.67;218535;1290;139537;-84
2023/04/24 05:40:46;;;;;;;18.80;11.80;;;;;;;12.98;100.00;99280.92;218093;1290;139377;-84
2023/04/24 05:45:47;;;;;;;26.40;13.40;;;;;;;13.08;100.00;99288.08;218587;1290;139429;-86
2023/04/24 05:50:47;;;;;;;34.10;16.80;;;;;;;13.20;100.00;99289.29;218074;1290;139941;-83
2023/04/24 05:55:48;;;;;;;23.40;13.90;;;;;;;13.33;100.00;99282.12;218751;1290;96036;-83
2023/04/24 06:00:49;;;;;;;22.60;14.30;;;;;;;13.44;100.00;99280.56;218062;1290;140085;-81
2023/04/24 06:05:51;;;;;;;18.10;11.90;;;;;;;13.58;100.00;99276.27;218622;1290;139166;-84
2023/04/24 06:10:51;;;;;;;19.60;12.80;;;;;;;13.73;100.00;99280.08;217954;1290;140231;-85
2023/04/24 06:15:53;;;;;;;18.80;12.10;;;;;;;13.82;100.00;99286.52;218378;1291;139475;-84
2023/04/24 06:20:55;;;;;;;19.20;12.60;;;;;;;13.93;100.00;99280.63;218071;1290;139613;-86
2023/04/24 06:26:14;;;;;;;21.60;12.20;;;;;;;14.02;100.00;99274.16;218446;1290;104167;-85
2023/04/24 06:31:15;;;;;;;21.80;12.70;;;;;;;14.10;100.00;99275.13;217972;1291;139623;-86
2023/04/24 06:36:16;;;;;;;19.40;11.30;;;;;;;14.15;100.00;99276.19;218653;1290;139118;-86
2023/04/24 06:41:17;;;;;;;21.60;12.10;;;;;;;14.21;100.00;99279.33;217877;1290;139442;-85
2023/04/24 06:46:18;;;;;;;21.20;13.30;;;;;;;14.24;100.00;99277.38;218547;1290;139424;-85
2023/04/24 06:51:19;;;;;;;20.50;14.00;;;;;;;14.26;100.00;99276.92;217966;1291;139389;-84
2023/04/24 06:56:20;;;;;;;21.50;14.20;;;;;;;14.27;100.00;99271.44;218731;1290;95932;-85
2023/04/24 07:01:21;;;;;;;21.00;13.90;;;;;;;14.36;100.00;99280.34;217890;1290;139338;-86
2023/04/24 07:06:23;;;;;;;19.70;12.30;;;;;;;14.50;100.00;99275.13;218544;1291;139328;-84
2023/04/24 07:11:24;;;;;;;17.20;13.00;;;;;;;14.70;100.00;99277.88;217931;1290;139899;-84
2023/04/24 07:16:24;;;;;;;22.00;13.00;;;;;;;14.94;100.00;99275.30;218477;1290;139594;-85
2023/04/24 07:21:25;;;;;;;19.20;11.80;;;;;;;15.13;100.00;99273.55;218107;1290;140139;-91
2023/04/24 07:26:35;;;;;;;21.70;13.00;;;;;;;15.29;99.55;99282.02;218795;1290;95651;-88
2023/04/24 07:31:35;;;;;;;18.90;12.00;;;;;;;15.38;98.72;99283.92;218135;1290;139818;-86
2023/04/24 07:36:38;;;;;;;18.10;12.90;;;;;;;15.48;98.26;99280.90;218413;1290;139286;-85
2023/04/24 07:41:38;;;;;;;20.60;13.90;;;;;;;15.52;97.58;99278.89;218116;1290;139533;-85
2023/04/24 07:46:38;;;;;;;19.20;12.70;;;;;;;15.51;96.99;99275.65;218652;1290;139358;-86
2023/04/24 07:51:39;;;;;;;22.20;14.30;;;;;;;15.50;96.76;99279.27;218149;1290;139647;-89
2023/04/24 07:56:42;;;;;;;18.60;13.60;;;;;;;15.52;97.54;99279.85;218626;1290;139751;-86
2023/04/24 08:01:43;;;;;;;18.50;12.60;;;;;;;15.61;97.40;99281.01;218237;1291;139153;-84
2023/04/24 08:06:43;;;;;;;19.80;13.40;;;;;;;15.71;97.24;99278.54;218702;1290;138954;-84
2023/04/24 08:11:44;;;;;;;19.00;13.40;;;;;;;15.84;96.40;99281.64;218114;1290;139414;-87
2023/04/24 08:16:45;;;;;;;19.10;13.30;;;;;;;15.95;95.85;99285.69;218417;1291;139084;-87
2023/04/24 08:21:46;;;;;;;21.60;13.10;;;;;;;16.07;94.96;99293.42;218025;1291;139602;-85
2023/04/24 08:26:50;;;;;;;23.00;12.50;;;;;;;16.17;94.94;99300.04;218648;1290;139055;-87
2023/04/24 08:31:50;;;;;;;22.70;12.80;;;;;;;16.24;94.03;99302.20;218184;1290;139640;-85
2023/04/24 08:36:50;;;;;;;18.60;12.30;;;;;;;16.18;93.02;99301.20;218686;1291;140819;-85
2023/04/24 08:41:52;;;;;;;20.20;13.50;;;;;;;16.11;93.06;99290.45;218091;1290;139749;-91
2023/04/24 08:46:56;;;;;;;19.60;13.50;;;;;;;16.20;92.97;99287.47;218434;1292;140050;-88
2023/04/24 08:51:59;;;;;;;19.30;13.40;;;;;;;16.30;92.33;99292.02;217988;1291;139846;-84
2023/04/24 08:57:01;;;;;;;19.90;13.60;;;;;;;16.57;93.72;99290.80;218634;1290;139012;-87
2023/04/24 09:02:04;;;;;;;16.00;11.60;;;;;;;16.95;91.08;99291.58;218268;1290;139094;-93
2023/04/24 09:07:07;;;;;;;20.20;14.00;;;;;;;17.16;89.99;99289.52;218447;1290;139529;-91
2023/04/24 09:12:09;;;;;;;19.50;12.50;;;;;;;17.34;88.65;99295.73;218046;1290;140073;-89
2023/04/24 09:17:10;;;;;;;22.30;13.20;;;;;;;17.51;87.10;99299.67;218428;1290;139802;-91
2023/04/24 09:22:11;;;;;;;17.60;11.50;;;;;;;17.64;86.85;99295.71;217935;1291;139564;-91
2023/04/24 09:27:17;;;;;;;19.10;11.60;;;;;;;17.88;85.63;99286.13;218536;1291;139750;-86
2023/04/24 09:32:22;;;;;;;18.30;12.30;;;;;;;18.17;86.00;99285.64;218150;1290;140242;-90
2023/04/24 09:37:29;;;;;;;18.50;12.40;;;;;;;18.47;84.57;99287.22;218468;1290;139461;-90
2023/04/24 09:42:31;;;;;;;17.50;12.20;;;;;;;18.66;83.06;99292.91;217989;1290;139807;-90
2023/04/24 09:47:39;;;;;;;17.00;10.60;;;;;;;18.81;83.06;99287.92;218588;1290;138938;-86
2023/04/24 09:52:41;;;;;;;17.20;11.40;;;;;;;19.16;81.55;99285.77;217986;1291;139820;-87
2023/04/24 09:58:04;;;;;;;16.00;11.50;;;;;;;19.45;79.72;99284.23;218792;1291;138518;-88
2023/04/24 10:03:06;;;;;;;17.90;11.50;;;;;;;19.67;78.40;99277.42;217987;1290;140326;-91
2023/04/24 10:08:08;;;;;;;17.30;10.90;;;;;;;19.70;76.82;99283.63;218584;1290;95903;-86
2023/04/24 10:13:13;;;;;;;14.10;10.60;;;;;;;19.67;76.96;99287.41;217944;1291;139023;-88
2023/04/24 10:18:15;;;;;;;21.00;12.10;;;;;;;19.72;76.39;99287.83;218465;1291;140518;-87
2023/04/24 10:23:19;;;;;;;17.10;12.20;;;;;;;19.71;76.04;99288.25;218089;1291;140143;-91
2023/04/24 10:28:20;;;;;;;16.50;12.70;;;;;;;19.63;76.13;99287.83;218317;1291;140421;-89
2023/04/24 10:33:23;;;;;;;17.80;11.80;;;;;;;19.60;76.58;99286.05;217894;1290;139708;-89
2023/04/24 10:38:26;;;;;;;14.80;11.10;;;;;;;19.63;76.72;99284.94;218763;1291;95654;-88
2023/04/24 10:43:29;;;;;;;16.30;10.90;;;;;;;19.68;75.96;99286.52;218077;1290;138735;-90
2023/04/24 10:48:30;;;;;;;17.40;10.90;;;;;;;19.51;75.18;99289.50;218579;1291;139450;-93
2023/04/24 10:53:31;;;;;;;11.20;8.20;;;;;;;19.40;75.19;99293.48;218151;1290;139618;-85
2023/04/24 10:58:46;;;;;;;10.70;7.60;;;;;;;19.46;74.32;99295.59;218670;1290;139398;-91
2023/04/24 11:03:54;;;;;;;10.00;7.10;;;;;;;19.59;73.64;99293.75;218033;1291;139502;-90
2023/04/24 11:09:03;;;;;;;10.50;6.40;;;;;;;19.64;73.35;99294.55;217783;1291;140664;-90
2023/04/24 11:14:06;;;;;;;9.90;5.50;;;;;;;19.76;71.94;99299.94;218536;1291;95707;-90
2023/04/24 11:19:08;;;;;;;10.50;6.30;;;;;;;19.88;70.40;99302.58;217912;1291;138873;-89
2023/04/24 11:24:28;;;;;;;9.70;6.00;;;;;;;19.98;70.40;99302.30;218469;1291;138189;-89
2023/04/24 11:29:48;;;;;;;13.40;6.70;;;;;;;20.14;69.45;99307.66;218137;1291;138837;-92
2023/04/24 11:34:54;;;;;;;11.70;5.80;;;;;;;20.02;69.53;99305.33;218600;1291;139074;-86
2023/04/24 11:39:55;;;;;;;;;;;;;;;20.04;69.57;99304.48;218114;1292;138385;-92
2023/04/24 11:44:57;;;;;;;8.90;3.10;;;;;;;20.02;67.89;99308.89;218583;1292;124605;-86
2023/04/24 11:49:58;;;;;;;6.00;3.20;;;;;;;20.03;66.72;99309.23;218049;1291;137992;-86
2023/04/24 11:54:59;;;;;;;6.60;2.90;;;;;;;19.99;66.15;99306.79;218638;1291;138623;-89
2023/04/24 12:05:48;;;;;;;9.70;3.80;;;;;;;20.07;65.87;99304.63;218394;1292;139110;-89
2023/04/24 12:10:51;;;;;;;5.00;3.10;;;;;;;20.17;65.45;99301.36;217927;1291;138264;-86
2023/04/24 12:15:51;;;;;;;5.80;3.10;;;;;;;20.21;65.08;99286.89;218640;1290;138297;-87
2023/04/24 12:20:52;;;;;;;7.40;3.70;;;;;;;20.23;65.07;99286.98;218167;1291;139566;-86
2023/04/24 12:25:53;;;;;;;9.40;2.90;;;;;;;20.32;64.59;99288.73;218834;1290;95994;-90
2023/04/24 12:31:00;;;;;;;7.10;2.80;;;;;;;20.21;63.10;99288.51;218004;1289;138387;-88
2023/04/24 12:36:01;;;;;;;5.50;2.90;;;;;;;20.07;63.94;99288.37;218501;1291;137901;-89
2023/04/24 12:41:24;;;;;;;5.80;3.40;;;;;;;19.92;64.23;99292.74;218036;1291;138153;-90
2023/04/24 12:46:25;;;;;;;7.20;3.30;;;;;;;19.72;65.22;99288.63;218676;1291;138921;-93
2023/04/24 12:51:25;;;;;;;7.70;3.70;;;;;;;19.60;65.37;99284.22;217942;1291;139484;-86
2023/04/24 12:56:26;;;;;;;6.50;2.80;;;;;;;19.48;65.40;99275.59;218805;1290;95690;-89
2023/04/24 13:01:26;;;;;;;7.80;2.70;;;;;;;19.27;66.14;99264.79;218061;1290;139414;-86
2023/04/24 13:06:27;;;;;;;5.30;2.60;;;;;;;19.12;66.79;99258.77;218683;1291;138591;-87
2023/04/24 13:11:27;;;;;;;8.70;3.10;;;;;;;18.93;67.62;99259.02;218136;1293;138580;-86
2023/04/24 13:16:28;;;;;;;8.40;2.50;;;;;;;18.79;68.60;99258.16;218525;1291;138774;-86
2023/04/24 13:21:33;;;;;;;6.40;2.90;;;;;;;18.71;68.88;99255.05;218213;1290;138761;-92
2023/04/24 13:26:33;;;;;;;7.20;2.50;;;;;;;18.53;69.35;99256.90;218689;1291;110960;-88
2023/04/24 13:31:34;;;;;;;5.50;2.40;;;;;;;18.31;69.99;99253.14;218045;1290;139313;-86
2023/04/24 13:36:35;;;;;;;7.70;2.90;;;;;;;18.14;71.08;99248.23;218498;1290;138624;-89
2023/04/24 13:41:36;;;;;;;6.20;2.80;;;;;;;18.02;72.31;99242.02;218179;1291;138636;-86
2023/04/24 13:46:36;;;;;;;10.20;2.70;;;;;;;17.93;72.78;99241.80;218354;1291;138946;-86
2023/04/24 13:51:36;;;;;;;4.90;2.10;;;;;;;17.85;72.56;99232.55;218059;1291;139419;-88
2023/04/24 13:56:38;;;;;;;4.80;1.50;;;;;;;17.82;72.48;99241.00;218786;1291;96356;-86
2023/04/24 14:01:39;;;;;;;4.20;1.50;;;;;;;17.76;71.18;99246.55;217869;1291;139115;-88
2023/04/24 14:06:39;;;;;;;3.60;1.30;;;;;;;17.65;69.92;99248.88;218558;1290;139997;-88
2023/04/24 14:11:40;;;;;;;1.90;1.20;;;;;;;17.58;69.19;99252.30;218129;1290;139169;-93
2023/04/24 14:16:40;;;;;;;4.10;1.30;;;;;;;17.52;67.51;99255.70;218554;1290;139528;-89
2023/04/24 14:21:41;;;;;;;6.90;1.60;;;;;;;17.48;66.87;99258.55;218225;1290;140017;-91
2023/04/24 14:26:41;;;;;;;4.00;1.10;;;;;;;17.47;65.43;99255.16;218728;1291;138445;-89
2023/04/24 14:31:42;;;;;;;5.50;1.70;;;;;;;17.47;65.56;99248.87;218310;1290;138665;-90
2023/04/24 14:36:43;;;;;;;4.80;1.90;;;;;;;17.57;66.30;99251.14;218431;1290;138600;-93
2023/04/24 14:41:43;;;;;;;6.00;1.50;;;;;;;17.67;65.52;99250.72;217968;1290;139361;-91
2023/04/24 14:46:44;;;;;;;1.80;1.00;;;;;;;17.70;64.54;99255.77;218585;1290;139594;-93
2023/04/24 14:51:44;;;;;;;2.60;1.20;;;;;;;17.72;64.08;99257.50;218255;1289;138213;-87
2023/04/24 14:56:45;;;;;;;3.80;1.50;;;;;;;17.60;64.19;99266.43;218640;1290;139026;-89
2023/04/24 15:01:47;;;;;;;5.00;1.40;;;;;;;17.49;64.63;99269.65;218287;1290;138801;-91
2023/04/24 15:06:47;;;;;;;4.60;2.00;;;;;;;17.39;64.17;99272.13;218601;1290;137986;-92
2023/04/24 15:11:48;;;;;;;4.40;1.40;;;;;;;17.20;65.45;99275.45;218059;1290;138950;-94
2023/04/24 15:16:49;;;;;;;4.50;1.40;;;;;;;17.08;67.44;99280.88;218612;1290;138177;-90
2023/04/24 15:21:50;;;;;;;3.40;1.80;;;;;;;16.96;69.21;99283.81;218090;1290;138147;-93
2023/04/24 15:26:50;;;;;;;5.30;2.30;;;;;;;16.81;71.59;99287.41;218656;1290;138182;-92
2023/04/24 15:31:51;;;;;;;4.90;2.30;;;;;;;16.64;72.84;99285.97;218247;1290;139288;-91
2023/04/24 15:36:51;;;;;;;4.30;2.00;;;;;;;16.50;73.99;99280.08;218655;1290;138687;-93
2023/04/24 15:41:53;;;;;;;4.50;1.30;;;;;;;16.33;74.70;99267.66;218086;1290;139827;-88
2023/04/24 15:46:55;;;;;;;5.20;2.10;;;;;;;16.31;74.69;99256.75;218613;1290;138881;-90
2023/04/24 15:51:55;;;;;;;5.90;1.50;;;;;;;16.29;74.28;99259.11;218045;1291;139065;-87
2023/04/24 15:56:55;;;;;;;3.30;1.50;;;;;;;16.19;74.16;99249.92;218654;1290;138712;-87
2023/04/24 16:01:56;;;;;;;2.50;1.40;;;;;;;16.11;74.38;99254.67;218296;1290;139685;-88
2023/04/24 16:06:57;;;;;;;4.80;1.50;;;;;;;16.03;74.06;99258.95;218538;1291;139264;-90
2023/04/24 16:11:57;;;;;;;5.80;1.70;;;;;;;15.94;74.18;99256.79;218197;1290;140597;-88
2023/04/24 16:16:57;;;;;;;4.60;2.10;;;;;;;15.84;74.58;99257.77;218529;1290;265255;-88
2023/04/24 16:21:58;;;;;;;5.60;2.20;;;;;;;15.74;75.64;99258.30;217924;1290;138984;-89
2023/04/24 16:26:59;;;;;;;6.50;2.10;;;;;;;15.68;76.33;99252.91;218561;1290;138771;-87
2023/04/24 16:31:59;;;;;;;3.50;1.90;;;;;;;15.66;76.67;99248.46;218188;1290;138980;-87
2023/04/24 16:36:59;;;;;;;5.60;2.60;;;;;;;15.65;77.24;99251.90;218490;1291;139847;-92
2023/04/24 16:42:00;;;;;;;6.60;2.20;;;;;;;15.63;76.77;99259.34;218024;1290;139904;-90
2023/04/24 16:47:01;;;;;;;3.90;1.50;;;;;;;15.57;76.51;99254.76;218629;1290;139077;-87
2023/04/24 16:52:02;;;;;;;3.90;1.70;;;;;;;15.51;75.60;99252.70;218181;1290;139197;-92
2023/04/24 16:57:03;;;;;;;2.80;1.70;;;;;;;15.37;74.53;99242.86;218677;1290;140340;-87
2023/04/24 17:02:03;;;;;;;3.80;1.80;;;;;;;15.29;74.36;99244.08;218168;1290;138602;-86
2023/04/24 17:07:04;;;;;;;3.00;1.60;;;;;;;15.25;74.68;99250.05;218647;1290;140067;-88
2023/04/24 17:12:05;;;;;;;2.30;1.00;;;;;;;15.15;75.85;99258.88;218030;1290;138861;-87
2023/04/24 17:17:05;;;;;;;5.10;1.30;;;;;;;15.04;76.83;99264.30;218565;1290;139494;-85
2023/04/24 17:22:06;;;;;;;2.50;1.10;;;;;;;14.89;77.42;99264.05;218162;1290;138741;-86
2023/04/24 17:27:06;;;;;;;3.00;1.20;;;;;;;14.77;78.02;99269.31;218664;1290;138741;-88
2023/04/24 17:32:07;;;;;;;3.20;1.60;;;;;;;14.65;78.39;99276.27;218078;1290;139022;-85
2023/04/24 17:37:07;;;;;;;4.70;1.60;;;;;;;14.49;79.06;99279.10;218568;1290;138946;-86
2023/04/24 17:42:08;;;;;;;7.50;3.10;;;;;;;14.35;80.10;99285.67;218012;1290;138550;-87
2023/04/24 17:47:09;;;;;;;7.10;2.60;;;;;;;14.17;81.03;99293.73;218572;1290;139001;-84
2023/04/24 17:52:10;;;;;;;7.90;3.50;;;;;;;14.01;81.54;99299.10;218192;1290;138648;-85
2023/04/24 17:57:11;;;;;;;7.10;2.60;;;;;;;13.87;82.12;99298.76;218706;1290;138943;-85
2023/04/24 18:02:11;;;;;;;8.30;2.90;;;;;;;13.75;82.03;99307.93;218244;1290;138679;-85
2023/04/24 18:07:12;;;;;;;10.00;3.40;;;;;;;13.64;82.29;99315.17;218647;1290;138743;-90
2023/04/24 18:12:13;;;;;;;9.40;3.70;;;;;;;13.54;83.30;99315.51;218079;1290;139961;-86
2023/04/24 18:17:13;;;;;;;8.40;3.60;;;;;;;13.44;84.41;99319.98;218625;1290;139386;-85
2023/04/24 18:22:13;;;;;;;7.40;3.50;;;;;;;13.37;85.59;99321.20;218140;1290;140090;-84
2023/04/24 18:27:14;;;;;;;9.30;4.20;;;;;;;13.30;86.79;99326.07;218659;1290;138705;-85
2023/04/24 18:32:15;;;;;;;11.00;3.90;;;;;;;13.20;87.93;99330.04;218256;1290;139247;-82
2023/04/24 18:37:15;;;;;;;9.20;4.30;;;;;;;13.14;88.46;99330.77;218606;1290;138954;-84
2023/04/24 18:42:18;;;;;;;10.50;5.10;;;;;;;13.07;89.61;99328.83;218013;1290;138790;-85
2023/04/24 18:47:19;;;;;;;9.50;4.20;;;;;;;13.05;90.07;99328.08;218479;1290;139184;-85
2023/04/24 18:52:19;;;;;;;10.10;4.80;;;;;;;13.02;90.38;99333.34;218107;1290;138753;-84
2023/04/24 18:57:20;;;;;;;10.90;5.00;;;;;;;12.99;91.07;99338.27;218576;1290;139025;-85
2023/04/24 19:02:20;;;;;;;13.30;6.90;;;;;;;12.94;91.66;99338.88;218212;1290;139285;-84
2023/04/24 19:07:21;;;;;;;11.40;5.70;;;;;;;12.90;92.38;99337.05;218539;1290;138683;-84
2023/04/24 19:12:21;;;;;;;10.60;5.30;;;;;;;12.87;93.08;99339.38;218151;1290;140420;-84
2023/04/24 19:17:23;;;;;;;9.80;5.60;;;;;;;12.83;93.38;99337.77;218702;1289;138851;-84
2023/04/24 19:22:24;;;;;;;12.70;5.80;;;;;;;12.81;93.79;99341.37;218077;1290;139086;-84
2023/04/24 19:27:24;;;;;;;13.20;6.90;;;;;;;12.78;94.50;99338.02;218670;1290;138986;-84
2023/04/24 19:32:25;;;;;;;22.10;11.20;;;;;;;12.75;94.82;99342.48;218236;1290;139369;-84
2023/04/24 19:37:25;;;;;;;22.50;10.80;;;;;;;12.70;95.55;99346.88;218668;1290;139009;-85
2023/04/24 19:42:26;;;;;;;18.50;9.10;;;;;;;12.65;95.99;99344.69;217970;1290;140195;-84
2023/04/24 19:47:26;;;;;;;18.80;9.70;;;;;;;12.60;96.44;99343.80;218598;1290;139824;-83
2023/04/24 19:52:27;;;;;;;17.30;10.30;;;;;;;12.55;96.68;99340.66;218080;1290;140070;-85
2023/04/24 19:57:28;;;;;;;18.60;10.00;;;;;;;12.51;97.61;99341.65;218299;1290;139214;-84
2023/04/24 20:02:29;;;;;;;16.80;9.20;;;;;;;12.44;97.95;99341.44;218255;1289;139424;-83
2023/04/24 20:07:30;;;;;;;17.80;9.10;;;;;;;12.39;98.29;99344.80;218658;1290;138749;-86
2023/04/24 20:12:30;;;;;;;19.60;9.40;;;;;;;12.35;98.54;99344.56;218148;1290;139426;-84
2023/04/24 20:17:31;;;;;;;18.90;10.10;;;;;;;12.30;99.27;99347.63;218498;1290;141047;-85
2023/04/24 20:22:37;;;;;;;16.80;9.30;;;;;;;12.25;99.14;99352.50;218156;1290;140064;-86
2023/04/24 20:27:39;;;;;;;18.60;9.20;;;;;;;12.21;99.74;99345.85;218502;1290;138995;-84
2023/04/24 20:32:43;;;;;;;15.80;8.30;;;;;;;12.16;99.88;99348.12;218087;1290;139243;-83
2023/04/24 20:37:47;;;;;;;13.70;7.30;;;;;;;12.11;99.85;99351.02;218592;1290;96031;-83
2023/04/24 20:42:48;;;;;;;13.00;7.10;;;;;;;12.06;100.00;99353.14;218165;1290;139277;-85
2023/04/24 20:47:49;;;;;;;14.00;7.50;;;;;;;12.02;100.00;99352.70;218698;1290;139134;-86
2023/04/24 20:52:49;;;;;;;10.80;6.80;;;;;;;11.96;100.00;99353.86;218180;1290;139495;-85
2023/04/24 20:57:49;;;;;;;15.30;7.60;;;;;;;11.90;100.00;99354.42;218677;1290;139069;-84
2023/04/24 21:02:50;;;;;;;13.80;6.50;;;;;;;11.84;100.00;99358.81;218009;1290;140320;-86
2023/04/24 21:07:54;;;;;;;11.50;7.10;;;;;;;11.78;100.00;99358.57;218719;1290;96871;-84
2023/04/24 21:12:54;;;;;;;13.70;6.50;;;;;;;11.74;100.00;99359.88;218094;1290;138922;-85
2023/04/24 21:17:55;;;;;;;12.30;6.80;;;;;;;11.67;100.00;99365.23;218703;1290;140827;-85
2023/04/24 21:22:56;;;;;;;14.90;6.90;;;;;;;11.59;99.98;99365.38;218227;1290;140131;-87
2023/04/24 21:27:58;;;;;;;12.30;7.30;;;;;;;11.51;100.00;99361.04;218580;1290;138877;-87
2023/04/24 21:32:58;;;;;;;12.60;6.10;;;;;;;11.42;100.00;99364.73;218164;1290;139544;-86
2023/04/24 21:37:58;;;;;;;12.30;6.30;;;;;;;11.33;99.97;99362.77;218610;1290;95682;-92
2023/04/24 21:42:59;;;;;;;12.30;5.80;;;;;;;11.24;99.85;99367.96;218126;1290;140249;-87
2023/04/24 21:48:00;;;;;;;11.00;5.20;;;;;;;11.15;99.31;99373.55;218624;1290;138864;-87
2023/04/24 21:53:01;;;;;;;12.50;5.30;;;;;;;11.06;98.69;99377.79;218191;1290;139280;-86
2023/04/24 21:58:01;;;;;;;9.20;4.60;;;;;;;11.01;98.47;99380.98;218819;1290;138940;-84
2023/04/24 22:03:20;;;;;;;9.90;4.40;;;;;;;10.95;97.85;99382.44;218157;1290;139002;-87
2023/04/24 22:08:21;;;;;;;13.50;4.90;;;;;;;10.88;97.32;99382.80;218700;1290;106327;-87
2023/04/24 22:13:21;;;;;;;11.00;4.80;;;;;;;10.83;97.10;99386.15;218080;1290;140359;-85
2023/04/24 22:18:21;;;;;;;11.20;4.70;;;;;;;10.77;96.88;99386.97;218425;1290;138830;-86
2023/04/24 22:23:22;;;;;;;9.40;4.30;;;;;;;10.71;96.59;99393.77;218199;1290;139103;-85
2023/04/24 22:28:22;;;;;;;8.10;3.80;;;;;;;10.64;96.14;99390.98;218693;1290;138888;-85
2023/04/24 22:33:23;;;;;;;7.00;3.20;;;;;;;10.57;95.59;99394.48;218176;1290;139238;-85
2023/04/24 22:38:23;;;;;;;7.40;3.00;;;;;;;10.50;95.03;99399.23;218793;1290;95702;-85
2023/04/24 22:43:25;;;;;;;5.80;3.10;;;;;;;10.44;94.89;99403.10;218108;1290;138628;-85
2023/04/24 22:48:26;;;;;;;7.20;3.30;;;;;;;10.35;94.77;99404.88;218562;1290;138935;-89
2023/04/24 22:53:27;;;;;;;7.50;2.80;;;;;;;10.26;93.99;99406.80;218172;1290;139810;-88